Time;durP1;ratioP1;P1;durP2;ratioP2;P2;SDS_P1;SDS_P2;PMS_P1;PMS_P2;Temp;Humidity;BMP_temperature;BMP_pressure;BME280_temperature;BME280_humidity;BME280_pressure;Samples;Min_cycle;Max_cycle;Signal;HPM_P1;HPM_P2
2022/10/04 00:01:10;;;;;;;0.10;0.10;;;12.90;99.90;;;;;;5050313;28;20052;-80
2022/10/04 00:03:46;;;;;;;0.10;0.10;;;12.90;99.90;;;;;;5047745;28;20041;-80
2022/10/04 00:06:19;;;;;;;0.20;0.20;;;12.90;99.90;;;;;;5051201;28;20707;-81
2022/10/04 00:08:51;;;;;;;0.13;0.13;;;12.90;99.90;;;;;;5032470;28;20036;-81
2022/10/04 00:11:33;;;;;;;0.10;0.10;;;12.90;99.90;;;;;;5033553;28;20501;-81
2022/10/04 00:14:04;;;;;;;0.10;0.10;;;12.90;99.90;;;;;;5032102;28;20649;-81
2022/10/04 00:16:36;;;;;;;0.20;0.20;;;13.00;99.90;;;;;;5053073;28;20045;-81
2022/10/04 00:19:14;;;;;;;0.15;0.15;;;12.90;99.90;;;;;;5030002;28;20132;-81
2022/10/04 00:21:57;;;;;;;0.20;0.20;;;13.00;99.90;;;;;;5033644;28;20045;-80
2022/10/04 00:24:24;;;;;;;0.10;0.10;;;13.00;99.90;;;;;;5029126;28;20052;-81
2022/10/04 00:26:49;;;;;;;0.10;0.10;;;13.10;99.90;;;;;;5029317;28;20079;-81
2022/10/04 00:29:36;;;;;;;0.10;0.10;;;12.80;99.90;;;;;;5045290;28;20079;-81
2022/10/04 00:32:11;;;;;;;0.10;0.10;;;12.80;99.90;;;;;;5049741;28;20431;-81
2022/10/04 00:34:48;;;;;;;0.10;0.10;;;12.80;99.90;;;;;;5047412;28;20045;-81
2022/10/04 00:37:15;;;;;;;0.10;0.10;;;12.80;99.90;;;;;;5070425;28;20048;-81
2022/10/04 00:39:54;;;;;;;0.10;0.10;;;12.70;99.90;;;;;;5049697;28;20037;-81
2022/10/04 00:42:40;;;;;;;0.20;0.20;;;12.70;99.90;;;;;;5057019;28;20094;-81
2022/10/04 00:45:17;;;;;;;0.10;0.10;;;12.60;99.90;;;;;;5067875;28;20040;-81
2022/10/04 00:47:43;;;;;;;0.20;0.20;;;12.60;99.90;;;;;;5038996;28;20044;-80
2022/10/04 00:50:26;;;;;;;0.10;0.10;;;12.50;99.90;;;;;;5049765;28;20048;-81
2022/10/04 00:52:56;;;;;;;0.10;0.10;;;12.60;99.90;;;;;;5089729;28;20028;-79
2022/10/04 00:55:38;;;;;;;0.20;0.20;;;12.50;99.90;;;;;;5072857;28;20041;-81
2022/10/04 00:58:14;;;;;;;0.15;0.15;;;12.50;99.90;;;;;;5073679;28;20476;-81
2022/10/04 01:00:42;;;;;;;0.20;0.20;;;12.50;99.90;;;;;;5048440;28;20086;-81
2022/10/04 01:03:15;;;;;;;0.10;0.10;;;12.50;99.90;;;;;;5043934;28;20053;-80
2022/10/04 01:05:44;;;;;;;0.10;0.10;;;12.40;99.90;;;;;;5068034;28;20044;-81
2022/10/04 01:08:13;;;;;;;0.20;0.20;;;12.40;99.90;;;;;;5067077;28;20041;-81
2022/10/04 01:10:56;;;;;;;0.20;0.20;;;12.50;99.90;;;;;;5068164;28;20047;-81
2022/10/04 01:13:30;;;;;;;0.10;0.10;;;12.50;99.90;;;;;;5052094;28;20068;-81
2022/10/04 01:16:26;;;;;;;0.15;0.15;;;12.40;99.90;;;;;;5050445;28;20436;-79
2022/10/04 01:19:23;;;;;;;0.20;0.20;;;12.40;99.90;;;;;;5056172;28;20450;-81
2022/10/04 01:22:06;;;;;;;0.20;0.20;;;12.40;99.90;;;;;;5071872;28;20040;-80
2022/10/04 01:24:37;;;;;;;0.10;0.10;;;12.40;99.90;;;;;;5068225;28;20121;-80
2022/10/04 01:27:05;;;;;;;0.20;0.20;;;12.40;99.90;;;;;;5069956;28;20055;-81
2022/10/04 01:29:31;;;;;;;0.20;0.20;;;12.50;99.90;;;;;;5049746;28;20496;-81
2022/10/04 01:32:03;;;;;;;0.13;0.13;;;12.40;99.90;;;;;;5049404;28;20416;-81
2022/10/04 01:34:29;;;;;;;0.10;0.10;;;12.40;99.90;;;;;;5065676;28;20047;-80
2022/10/04 01:36:58;;;;;;;0.20;0.20;;;12.40;99.90;;;;;;5050539;28;20053;-81
2022/10/04 01:39:28;;;;;;;0.20;0.20;;;12.40;99.90;;;;;;5049222;28;20070;-80
2022/10/04 01:42:08;;;;;;;0.10;0.10;;;12.40;99.90;;;;;;5071105;28;20047;-81
2022/10/04 01:44:40;;;;;;;0.10;0.10;;;12.30;99.90;;;;;;5053164;28;20048;-81
2022/10/04 01:47:21;;;;;;;0.13;0.13;;;12.40;99.90;;;;;;5067246;28;20439;-80
2022/10/04 01:49:48;;;;;;;0.13;0.13;;;12.40;99.90;;;;;;5048269;28;20488;-80
2022/10/04 01:52:19;;;;;;;0.10;0.10;;;12.40;99.90;;;;;;5070991;28;20044;-80
2022/10/04 01:54:57;;;;;;;0.20;0.20;;;12.40;99.90;;;;;;5047921;28;20044;-82
2022/10/04 01:57:29;;;;;;;0.10;0.10;;;12.40;99.90;;;;;;5037009;28;20040;-80
2022/10/04 02:00:05;;;;;;;0.20;0.20;;;12.40;99.90;;;;;;5071018;28;20102;-82
2022/10/04 02:02:59;;;;;;;0.20;0.20;;;12.40;99.90;;;;;;5036014;28;20385;-80
2022/10/04 02:05:39;;;;;;;0.20;0.20;;;12.40;99.90;;;;;;5069934;28;20051;-79
2022/10/04 02:08:07;;;;;;;0.20;0.20;;;12.40;99.90;;;;;;5049347;28;20515;-80
2022/10/04 02:10:35;;;;;;;0.10;0.10;;;12.40;99.90;;;;;;5064686;28;20052;-81
2022/10/04 02:13:06;;;;;;;0.10;0.10;;;12.40;99.90;;;;;;5049620;28;20044;-81
2022/10/04 02:15:36;;;;;;;0.20;0.20;;;12.40;99.90;;;;;;5064201;28;20051;-79
2022/10/04 02:18:05;;;;;;;0.10;0.10;;;12.40;99.90;;;;;;5040720;28;20152;-80
2022/10/04 02:20:32;;;;;;;0.10;0.10;;;12.40;99.90;;;;;;5045180;28;20056;-80
2022/10/04 02:23:02;;;;;;;0.10;0.10;;;12.40;99.90;;;;;;5065868;28;20119;-80
2022/10/04 02:25:28;;;;;;;0.20;0.20;;;12.40;99.90;;;;;;5049320;28;20190;-80
2022/10/04 02:27:54;;;;;;;0.20;0.20;;;12.50;99.90;;;;;;5047414;28;20060;-80
2022/10/04 02:30:21;;;;;;;0.10;0.10;;;12.50;99.90;;;;;;5050877;28;20045;-80
2022/10/04 02:32:56;;;;;;;0.20;0.20;;;12.40;99.90;;;;;;5067973;28;20047;-82
2022/10/04 02:35:28;;;;;;;0.20;0.20;;;12.40;99.90;;;;;;5052291;28;20548;-81
2022/10/04 02:38:26;;;;;;;0.10;0.10;;;12.40;99.90;;;;;;5045054;28;20132;-81
2022/10/04 02:41:08;;;;;;;0.15;0.15;;;12.50;99.90;;;;;;5046572;28;20056;-80
2022/10/04 02:43:40;;;;;;;0.10;0.10;;;12.40;99.90;;;;;;5048195;28;20065;-80
2022/10/04 02:46:20;;;;;;;;;;;12.50;99.90;;;;;;5048864;28;20048;-80
2022/10/04 02:48:54;;;;;;;0.20;0.20;;;12.50;99.90;;;;;;5039988;28;20002;-80
2022/10/04 02:51:48;;;;;;;0.10;0.10;;;12.50;99.90;;;;;;5034658;28;20045;-81
2022/10/04 02:54:26;;;;;;;0.10;0.10;;;12.50;99.90;;;;;;5036269;28;20110;-81
2022/10/04 02:56:53;;;;;;;0.20;0.20;;;12.50;99.90;;;;;;5043500;28;20148;-81
2022/10/04 02:59:20;;;;;;;0.10;0.10;;;12.40;99.90;;;;;;5046939;28;20041;-80
2022/10/04 03:01:58;;;;;;;0.15;0.15;;;12.40;99.90;;;;;;5050426;28;20064;-81
2022/10/04 03:04:32;;;;;;;0.20;0.20;;;12.50;99.90;;;;;;5032070;28;20040;-80
2022/10/04 03:07:02;;;;;;;0.10;0.10;;;12.40;99.90;;;;;;5047330;28;20045;-80
2022/10/04 03:09:28;;;;;;;0.20;0.20;;;12.40;99.90;;;;;;5045959;28;20073;-80
2022/10/04 03:11:55;;;;;;;0.10;0.10;;;12.40;99.90;;;;;;5049469;28;20080;-80
2022/10/04 03:14:23;;;;;;;0.20;0.20;;;12.40;99.90;;;;;;5048862;28;20041;-80
2022/10/04 03:16:53;;;;;;;0.20;0.20;;;12.40;99.90;;;;;;5056735;28;20045;-81
2022/10/04 03:19:22;;;;;;;0.20;0.20;;;12.40;99.90;;;;;;5064914;28;20425;-80
2022/10/04 03:21:54;;;;;;;0.10;0.10;;;12.40;99.90;;;;;;5062045;28;20041;-79
2022/10/04 03:24:32;;;;;;;0.20;0.20;;;12.40;99.90;;;;;;5050691;28;20049;-80
2022/10/04 03:27:02;;;;;;;0.20;0.20;;;12.40;99.90;;;;;;5048552;28;20124;-80
2022/10/04 03:29:30;;;;;;;0.10;0.10;;;12.30;99.90;;;;;;5071140;28;20094;-80
2022/10/04 03:32:01;;;;;;;0.10;0.10;;;12.40;99.90;;;;;;5049521;28;20158;-80
2022/10/04 03:34:35;;;;;;;0.20;0.20;;;12.30;99.90;;;;;;5051758;28;20045;-80
2022/10/04 03:37:04;;;;;;;0.10;0.10;;;12.30;99.90;;;;;;5048325;28;20496;-80
2022/10/04 03:39:41;;;;;;;0.10;0.10;;;12.20;99.90;;;;;;5072546;28;20036;-79
2022/10/04 03:42:13;;;;;;;0.17;0.17;;;12.20;99.90;;;;;;5073065;28;20044;-79
2022/10/04 03:44:40;;;;;;;0.20;0.20;;;12.20;99.90;;;;;;5070345;28;20040;-80
2022/10/04 03:47:10;;;;;;;0.10;0.10;;;12.20;99.90;;;;;;5070767;28;20142;-80
2022/10/04 03:49:37;;;;;;;0.10;0.10;;;12.20;99.90;;;;;;5057445;28;20041;-80
2022/10/04 03:52:04;;;;;;;0.10;0.10;;;12.20;99.90;;;;;;5058127;28;20048;-80
2022/10/04 03:54:32;;;;;;;0.10;0.10;;;12.20;99.90;;;;;;5072750;28;20047;-80
2022/10/04 03:56:59;;;;;;;0.20;0.20;;;12.10;99.90;;;;;;5073987;28;20053;-80
2022/10/04 03:59:27;;;;;;;0.20;0.20;;;12.10;99.90;;;;;;5070740;28;20480;-80
2022/10/04 04:02:02;;;;;;;0.10;0.10;;;12.10;99.90;;;;;;5051612;28;20055;-79
2022/10/04 04:04:57;;;;;;;0.10;0.10;;;12.10;99.90;;;;;;5066391;28;20131;-81
2022/10/04 04:07:40;;;;;;;0.20;0.20;;;12.10;99.90;;;;;;5048211;28;20422;-81
2022/10/04 04:10:23;;;;;;;0.20;0.20;;;12.10;99.90;;;;;;5070172;28;20055;-81
2022/10/04 04:13:34;;;;;;;0.10;0.10;;;12.00;99.90;;;;;;5081306;28;20035;-81
2022/10/04 04:16:00;;;;;;;0.10;0.10;;;12.10;99.90;;;;;;5048530;28;20052;-79
2022/10/04 04:18:32;;;;;;;0.10;0.10;;;12.00;99.90;;;;;;5066870;28;20494;-81
2022/10/04 04:21:01;;;;;;;0.10;0.10;;;12.00;99.90;;;;;;5055714;28;20039;-80
2022/10/04 04:23:37;;;;;;;0.10;0.10;;;12.00;99.90;;;;;;5051361;28;20107;-81
2022/10/04 04:26:26;;;;;;;0.20;0.20;;;12.00;99.90;;;;;;5046622;28;20041;-80
2022/10/04 04:29:14;;;;;;;0.10;0.10;;;12.00;99.90;;;;;;5055442;28;20416;-81
2022/10/04 04:31:48;;;;;;;0.20;0.20;;;11.90;99.90;;;;;;5034607;28;20053;-80
2022/10/04 04:34:28;;;;;;;0.10;0.10;;;12.00;99.90;;;;;;5050959;28;20044;-80
2022/10/04 04:36:58;;;;;;;0.10;0.10;;;11.90;99.90;;;;;;5071304;28;20076;-81
2022/10/04 04:39:32;;;;;;;0.10;0.10;;;11.90;99.90;;;;;;5051165;28;20045;-80
2022/10/04 04:42:00;;;;;;;0.20;0.20;;;11.90;99.90;;;;;;5068316;28;20120;-80
2022/10/04 04:44:27;;;;;;;0.20;0.20;;;11.90;99.90;;;;;;5068117;28;20147;-81
2022/10/04 04:46:55;;;;;;;0.17;0.17;;;11.90;99.90;;;;;;5072378;28;20049;-81
2022/10/04 04:49:24;;;;;;;0.20;0.20;;;11.90;99.90;;;;;;5068015;28;20071;-81
2022/10/04 04:51:52;;;;;;;0.10;0.10;;;11.90;99.90;;;;;;5041403;28;20041;-81
2022/10/04 04:54:22;;;;;;;0.10;0.10;;;11.80;99.90;;;;;;5067047;28;20043;-80
2022/10/04 04:56:51;;;;;;;0.20;0.20;;;11.80;99.90;;;;;;5072307;28;20045;-80
2022/10/04 04:59:19;;;;;;;0.20;0.20;;;11.80;99.90;;;;;;5069933;28;20040;-79
2022/10/04 05:01:46;;;;;;;0.10;0.10;;;11.80;99.90;;;;;;5057464;28;20517;-81
2022/10/04 05:04:17;;;;;;;0.10;0.10;;;11.70;99.90;;;;;;5048859;28;20048;-81
2022/10/04 05:06:47;;;;;;;0.20;0.20;;;11.80;99.90;;;;;;5048845;28;20069;-81
2022/10/04 05:09:27;;;;;;;0.10;0.10;;;11.90;99.90;;;;;;5048077;28;20118;-81
2022/10/04 05:11:56;;;;;;;0.10;0.10;;;11.80;99.90;;;;;;5050187;28;20044;-81
2022/10/04 05:14:22;;;;;;;0.20;0.20;;;11.70;99.90;;;;;;5047354;28;20094;-80
2022/10/04 05:16:51;;;;;;;0.10;0.10;;;11.70;99.90;;;;;;5047332;28;20041;-81
2022/10/04 05:19:21;;;;;;;0.20;0.20;;;11.70;99.90;;;;;;5048523;28;20036;-79
2022/10/04 05:21:48;;;;;;;0.10;0.10;;;11.70;99.90;;;;;;5065273;28;20119;-79
2022/10/04 05:24:26;;;;;;;0.10;0.10;;;11.70;99.90;;;;;;5050791;28;20051;-81
2022/10/04 05:26:55;;;;;;;0.20;0.20;;;11.60;99.90;;;;;;5064498;28;20116;-80
2022/10/04 05:29:26;;;;;;;0.20;0.20;;;11.60;99.90;;;;;;5049843;28;20079;-82
2022/10/04 05:32:06;;;;;;;0.20;0.20;;;11.60;99.90;;;;;;5067500;28;20048;-76
2022/10/04 05:34:40;;;;;;;0.20;0.20;;;11.50;99.90;;;;;;5066106;28;20079;-77
2022/10/04 05:37:39;;;;;;;0.63;0.30;;;11.50;99.90;;;;;;5067141;28;20033;-77
2022/10/04 05:40:13;;;;;;;0.20;0.20;;;11.50;99.90;;;;;;5049222;28;20120;-77
2022/10/04 05:42:45;;;;;;;0.20;0.20;;;11.50;99.90;;;;;;5074478;28;20064;-75
2022/10/04 05:45:18;;;;;;;0.10;0.10;;;11.50;99.90;;;;;;5064986;28;20038;-77
2022/10/04 05:47:47;;;;;;;0.10;0.10;;;11.40;99.90;;;;;;5069328;28;20048;-77
2022/10/04 05:50:17;;;;;;;0.20;0.20;;;11.40;99.90;;;;;;5067509;28;20036;-77
2022/10/04 05:52:47;;;;;;;0.10;0.10;;;11.40;99.90;;;;;;5044338;28;20125;-75
2022/10/04 05:55:36;;;;;;;0.10;0.10;;;11.30;99.90;;;;;;5062016;28;20098;-75
2022/10/04 05:58:46;;;;;;;0.13;0.13;;;11.30;99.90;;;;;;5050697;28;20048;-76
2022/10/04 06:01:29;;;;;;;0.20;0.20;;;11.40;99.90;;;;;;5028854;28;20125;-75
2022/10/04 06:04:25;;;;;;;0.20;0.20;;;11.40;99.90;;;;;;5063775;28;20131;-76
2022/10/04 06:07:17;;;;;;;0.20;0.20;;;11.30;99.90;;;;;;5067778;28;20040;-77
2022/10/04 06:10:01;;;;;;;0.10;0.10;;;11.30;99.90;;;;;;5045919;28;20063;-77
2022/10/04 06:13:00;;;;;;;0.20;0.20;;;11.30;99.90;;;;;;5049338;28;20062;-76
2022/10/04 06:15:57;;;;;;;0.20;0.20;;;11.20;99.90;;;;;;5064647;28;20048;-77
2022/10/04 06:19:01;;;;;;;0.20;0.20;;;11.20;99.90;;;;;;5045796;28;20048;-77
2022/10/04 06:21:28;;;;;;;0.20;0.20;;;11.20;99.90;;;;;;5047728;28;20463;-76
2022/10/04 06:23:57;;;;;;;0.20;0.20;;;11.30;99.90;;;;;;5047681;28;20093;-76
2022/10/04 06:26:33;;;;;;;0.20;0.20;;;11.20;99.90;;;;;;5050857;28;20058;-77
2022/10/04 06:29:10;;;;;;;0.15;0.15;;;11.20;99.90;;;;;;5065301;28;20053;-76
2022/10/04 06:31:42;;;;;;;0.20;0.20;;;11.20;99.90;;;;;;5042803;28;20048;-77
2022/10/04 06:34:35;;;;;;;0.15;0.15;;;11.20;99.90;;;;;;5061835;28;20076;-77
2022/10/04 06:37:32;;;;;;;0.20;0.20;;;11.20;99.90;;;;;;5043921;28;20049;-76
2022/10/04 06:40:25;;;;;;;0.20;0.20;;;11.20;99.90;;;;;;5062114;28;20036;-77
2022/10/04 06:43:06;;;;;;;0.20;0.20;;;11.20;99.90;;;;;;5048939;28;20078;-76
2022/10/04 06:45:52;;;;;;;0.20;0.20;;;11.20;99.90;;;;;;5066413;28;20546;-77
2022/10/04 06:48:34;;;;;;;0.20;0.20;;;11.20;99.90;;;;;;5048326;28;20048;-77
2022/10/04 06:51:19;;;;;;;0.10;0.10;;;11.30;99.90;;;;;;5047773;28;20040;-76
2022/10/04 06:53:44;;;;;;;0.10;0.10;;;11.30;99.90;;;;;;5046009;28;20117;-76
2022/10/04 06:56:19;;;;;;;0.10;0.10;;;11.30;99.90;;;;;;5044038;28;20653;-76
2022/10/04 06:59:12;;;;;;;0.20;0.20;;;11.40;99.90;;;;;;5063930;28;20040;-75
2022/10/04 07:01:51;;;;;;;0.20;0.20;;;11.40;99.90;;;;;;5069596;28;20036;-76
2022/10/04 07:04:19;;;;;;;0.10;0.10;;;11.50;99.90;;;;;;5045635;28;20122;-76
2022/10/04 07:08:05;;;;;;;0.20;0.20;;;11.50;99.90;;;;;;5046456;28;20081;-75
2022/10/04 07:10:15;;;;;;;0.20;0.20;;;11.50;99.90;;;;;;5032175;28;20551;-75
2022/10/04 07:12:43;;;;;;;0.10;0.10;;;11.70;99.90;;;;;;5046931;28;20067;-76
2022/10/04 07:15:21;;;;;;;0.17;0.17;;;11.70;99.90;;;;;;5052748;28;20392;-76
2022/10/04 07:17:49;;;;;;;0.20;0.20;;;11.80;99.90;;;;;;5060121;28;20080;-76
2022/10/04 07:20:32;;;;;;;0.20;0.20;;;11.80;99.90;;;;;;5046334;28;20053;-76
2022/10/04 07:23:05;;;;;;;0.10;0.10;;;11.80;99.90;;;;;;5047758;28;20052;-76
2022/10/04 07:25:42;;;;;;;0.20;0.20;;;11.90;99.90;;;;;;5063691;28;20138;-76
2022/10/04 07:30:59;;;;;;;0.13;0.13;;;11.90;99.90;;;;;;5062309;28;20095;-76
2022/10/04 07:33:28;;;;;;;0.10;0.10;;;12.00;99.90;;;;;;5060829;28;20135;-76
2022/10/04 07:36:07;;;;;;;0.20;0.20;;;12.00;99.90;;;;;;5056676;28;20041;-75
2022/10/04 07:38:38;;;;;;;0.13;0.13;;;12.10;99.90;;;;;;5051485;28;20056;-76
2022/10/04 07:41:30;;;;;;;0.20;0.20;;;12.10;99.90;;;;;;5062724;28;20111;-76
2022/10/04 07:44:05;;;;;;;0.17;0.17;;;12.20;99.90;;;;;;5060823;28;20067;-75
2022/10/04 07:46:48;;;;;;;0.10;0.10;;;12.30;99.90;;;;;;5046606;28;20068;-76
2022/10/04 07:49:19;;;;;;;0.10;0.10;;;12.40;99.90;;;;;;5060102;28;20051;-76
2022/10/04 07:52:11;;;;;;;0.10;0.10;;;12.50;99.90;;;;;;5058923;28;20040;-75
2022/10/04 07:54:46;;;;;;;0.20;0.20;;;12.60;99.90;;;;;;5059059;28;20044;-75
2022/10/04 07:57:23;;;;;;;0.20;0.20;;;13.20;99.90;;;;;;5065287;28;20119;-75
2022/10/04 07:59:59;;;;;;;0.20;0.20;;;12.80;99.90;;;;;;5060760;28;20460;-74
2022/10/04 08:02:25;;;;;;;0.13;0.13;;;12.80;99.90;;;;;;5062867;28;20495;-75
2022/10/04 08:05:14;;;;;;;0.20;0.20;;;12.80;99.90;;;;;;5047499;28;20048;-75
2022/10/04 08:08:01;;;;;;;0.20;0.20;;;12.80;99.90;;;;;;5066427;28;20098;-74
2022/10/04 08:10:36;;;;;;;0.10;0.10;;;12.90;99.90;;;;;;5055394;28;20067;-75
2022/10/04 08:13:19;;;;;;;0.20;0.20;;;12.90;99.90;;;;;;5062686;28;20067;-75
2022/10/04 08:15:45;;;;;;;0.20;0.20;;;12.90;99.90;;;;;;5055039;28;20049;-75
2022/10/04 08:18:32;;;;;;;0.13;0.13;;;12.90;99.90;;;;;;5066623;28;20040;-75
2022/10/04 08:21:00;;;;;;;0.20;0.20;;;12.90;99.90;;;;;;5052732;28;20442;-75
2022/10/04 08:24:07;;;;;;;0.10;0.10;;;12.90;99.90;;;;;;5051153;28;20102;-74
2022/10/04 08:26:57;;;;;;;0.20;0.20;;;12.90;99.90;;;;;;5055386;28;20056;-75
2022/10/04 08:29:59;;;;;;;0.20;0.20;;;12.80;99.90;;;;;;5046561;28;20145;-75
2022/10/04 08:32:28;;;;;;;;;;;12.80;99.90;;;;;;5045204;28;20171;-75
2022/10/04 08:35:16;;;;;;;0.17;0.17;;;12.90;99.90;;;;;;5049685;28;19928;-74
2022/10/04 08:38:16;;;;;;;0.10;0.10;;;12.90;99.90;;;;;;5050845;28;20099;-75
2022/10/04 08:41:07;;;;;;;0.20;0.20;;;13.00;99.90;;;;;;5068557;28;20103;-75
2022/10/04 08:44:13;;;;;;;0.10;0.10;;;13.10;99.90;;;;;;5050913;28;20091;-76
2022/10/04 08:46:58;;;;;;;0.10;0.10;;;13.20;99.90;;;;;;5063266;28;20280;-75
2022/10/04 08:49:41;;;;;;;0.10;0.10;;;13.20;99.90;;;;;;5063197;28;20209;-76
2022/10/04 08:52:44;;;;;;;0.20;0.20;;;13.30;99.90;;;;;;5067164;28;20049;-77
2022/10/04 08:55:19;;;;;;;0.10;0.10;;;13.40;99.90;;;;;;5045415;28;20052;-76
2022/10/04 08:58:23;;;;;;;0.20;0.20;;;13.50;99.90;;;;;;5049339;28;20399;-77
2022/10/04 09:00:57;;;;;;;0.20;0.20;;;13.60;99.90;;;;;;5045597;28;20045;-77
2022/10/04 09:03:41;;;;;;;0.10;0.10;;;13.70;99.90;;;;;;5055403;28;20417;-74
2022/10/04 09:06:07;;;;;;;0.20;0.20;;;13.80;99.90;;;;;;5074517;28;20415;-75
2022/10/04 09:09:03;;;;;;;0.10;0.10;;;13.80;99.90;;;;;;5054268;28;20041;-74
2022/10/04 09:11:53;;;;;;;0.10;0.10;;;13.90;99.90;;;;;;5059963;28;20448;-75
2022/10/04 09:14:44;;;;;;;0.10;0.10;;;14.00;99.90;;;;;;5070872;28;20036;-75
2022/10/04 09:17:32;;;;;;;0.20;0.20;;;14.10;99.90;;;;;;5058618;28;20504;-75
2022/10/04 09:20:46;;;;;;;0.20;0.20;;;14.10;99.90;;;;;;5048934;28;20048;-75
2022/10/04 09:23:15;;;;;;;0.10;0.10;;;14.20;99.90;;;;;;5052985;28;20726;-76
2022/10/04 09:26:00;;;;;;;0.20;0.20;;;14.20;99.90;;;;;;5068419;28;20072;-76
2022/10/04 09:28:58;;;;;;;0.13;0.13;;;14.20;99.90;;;;;;5069028;28;20506;-77
2022/10/04 09:31:32;;;;;;;0.20;0.20;;;14.30;99.90;;;;;;5055819;28;20058;-77
2022/10/04 09:34:21;;;;;;;0.20;0.20;;;14.30;99.90;;;;;;5055460;28;20051;-75
2022/10/04 09:37:01;;;;;;;0.20;0.20;;;14.40;99.90;;;;;;5050330;28;20045;-76
2022/10/04 09:39:57;;;;;;;0.20;0.20;;;14.50;99.90;;;;;;5054235;28;20496;-76
2022/10/04 09:42:32;;;;;;;0.10;0.10;;;14.50;99.90;;;;;;5052869;28;20518;-77
2022/10/04 09:45:24;;;;;;;0.10;0.10;;;14.60;99.90;;;;;;5069078;28;20527;-77
2022/10/04 09:48:08;;;;;;;;;;;14.60;99.90;;;;;;5042224;28;20447;-77
2022/10/04 09:51:00;;;;;;;0.10;0.10;;;14.80;99.90;;;;;;5038265;28;19924;-76
2022/10/04 09:53:45;;;;;;;0.10;0.10;;;14.80;99.90;;;;;;5047339;28;20076;-76
2022/10/04 09:56:36;;;;;;;0.20;0.20;;;14.90;99.90;;;;;;5049863;28;20041;-76
2022/10/04 09:59:21;;;;;;;0.10;0.10;;;14.90;99.90;;;;;;5037722;28;20104;-77
2022/10/04 10:01:59;;;;;;;0.20;0.20;;;15.00;99.90;;;;;;5047581;28;20076;-76
2022/10/04 10:04:58;;;;;;;0.20;0.20;;;15.00;99.90;;;;;;5062667;28;20039;-76
2022/10/04 10:07:39;;;;;;;0.10;0.10;;;15.00;99.90;;;;;;5039140;28;20072;-77
2022/10/04 10:13:44;;;;;;;0.10;0.10;;;15.10;99.90;;;;;;5070437;28;20048;-77
2022/10/04 10:16:37;;;;;;;0.20;0.20;;;15.20;99.90;;;;;;5050198;28;20137;-76
2022/10/04 10:19:11;;;;;;;0.10;0.10;;;15.30;99.90;;;;;;5068274;28;20106;-77
2022/10/04 10:22:14;;;;;;;0.20;0.20;;;15.40;99.90;;;;;;5066102;28;20045;-76
2022/10/04 10:24:52;;;;;;;0.20;0.20;;;15.50;99.90;;;;;;5049637;28;20060;-77
2022/10/04 10:27:31;;;;;;;0.10;0.10;;;15.60;99.90;;;;;;5053639;28;20056;-76
2022/10/04 10:29:58;;;;;;;0.10;0.10;;;15.60;99.90;;;;;;5048976;28;20396;-76
2022/10/04 10:32:34;;;;;;;0.20;0.20;;;15.70;99.90;;;;;;5040799;28;20196;-76
2022/10/04 10:35:19;;;;;;;0.10;0.10;;;15.70;99.90;;;;;;5042208;28;20063;-77
2022/10/04 10:38:23;;;;;;;0.20;0.20;;;15.80;99.90;;;;;;5029910;28;20099;-77
2022/10/04 10:41:16;;;;;;;0.10;0.10;;;15.90;99.90;;;;;;5050650;28;20084;-77
2022/10/04 10:44:21;;;;;;;0.20;0.20;;;16.00;99.90;;;;;;5027598;28;20044;-77
2022/10/04 10:47:25;;;;;;;0.20;0.20;;;16.10;99.90;;;;;;4937642;28;20054;-77
2022/10/04 10:50:05;;;;;;;0.20;0.20;;;16.20;99.90;;;;;;4965135;28;20135;-76
2022/10/04 10:52:41;;;;;;;0.20;0.20;;;16.30;99.90;;;;;;5014760;28;20072;-77
2022/10/04 10:55:35;;;;;;;0.20;0.20;;;16.30;99.90;;;;;;5033366;28;20075;-76
2022/10/04 10:58:16;;;;;;;0.10;0.10;;;16.50;99.90;;;;;;5062438;28;20064;-76
2022/10/04 11:01:05;;;;;;;0.10;0.10;;;16.50;99.90;;;;;;5042736;28;20400;-77
2022/10/04 11:04:01;;;;;;;0.20;0.20;;;16.50;99.90;;;;;;5048350;28;20049;-77
2022/10/04 11:07:03;;;;;;;0.20;0.20;;;16.60;99.90;;;;;;5047717;28;20033;-76
2022/10/04 11:09:30;;;;;;;;;;;16.70;99.90;;;;;;5018229;28;20081;-76
2022/10/04 11:12:47;;;;;;;0.10;0.10;;;16.80;99.90;;;;;;5035038;28;20483;-76
2022/10/04 11:15:37;;;;;;;0.20;0.20;;;16.90;99.90;;;;;;4986301;28;20053;-76
2022/10/04 11:18:41;;;;;;;0.10;0.10;;;17.00;99.90;;;;;;5040282;28;20179;-76
2022/10/04 11:21:39;;;;;;;0.15;0.15;;;17.10;99.90;;;;;;5041490;28;20075;-76
2022/10/04 11:24:13;;;;;;;0.20;0.20;;;17.10;99.90;;;;;;5030276;28;20045;-76
2022/10/04 11:26:46;;;;;;;0.22;0.22;;;17.20;99.90;;;;;;5048530;28;20110;-76
2022/10/04 11:29:32;;;;;;;0.10;0.10;;;17.30;99.90;;;;;;5038806;28;20056;-76
2022/10/04 11:32:00;;;;;;;0.10;0.10;;;17.40;99.90;;;;;;5047459;28;20070;-76
2022/10/04 11:35:03;;;;;;;0.13;0.13;;;17.50;99.90;;;;;;5047816;28;20045;-76
2022/10/04 11:37:34;;;;;;;0.20;0.20;;;17.70;99.90;;;;;;5047583;28;20470;-76
2022/10/04 11:40:15;;;;;;;0.20;0.20;;;17.90;99.90;;;;;;5047762;28;20041;-76
2022/10/04 11:43:30;;;;;;;0.20;0.20;;;18.00;99.90;;;;;;5047052;28;20045;-75
2022/10/04 11:46:05;;;;;;;0.20;0.20;;;18.20;99.90;;;;;;5051971;28;20045;-75
2022/10/04 11:48:52;;;;;;;0.22;0.22;;;18.30;99.90;;;;;;5041981;28;20041;-76
2022/10/04 11:52:03;;;;;;;0.10;0.10;;;18.30;99.90;;;;;;5048755;28;20780;-76
2022/10/04 11:55:00;;;;;;;0.20;0.20;;;18.50;99.90;;;;;;5053234;28;20119;-76
2022/10/04 11:58:07;;;;;;;0.20;0.20;;;18.60;99.90;;;;;;5047701;28;20044;-76
2022/10/04 12:01:00;;;;;;;0.20;0.20;;;18.70;99.90;;;;;;4969789;28;20039;-76
2022/10/04 12:03:44;;;;;;;0.30;0.30;;;18.80;99.90;;;;;;5048860;28;20040;-77
2022/10/04 12:06:49;;;;;;;0.20;0.20;;;19.00;99.90;;;;;;5050824;28;20045;-76
2022/10/04 12:09:35;;;;;;;0.20;0.20;;;19.10;99.90;;;;;;5041231;28;20065;-76
2022/10/04 12:15:22;;;;;;;0.20;0.20;;;19.30;99.90;;;;;;5049598;28;20057;-75
2022/10/04 12:17:47;;;;;;;0.20;0.20;;;19.50;99.90;;;;;;5043757;28;20041;-76
2022/10/04 12:20:39;;;;;;;0.20;0.20;;;19.50;99.90;;;;;;5046745;28;20059;-76
2022/10/04 12:23:29;;;;;;;0.20;0.20;;;19.60;99.90;;;;;;5050608;28;20077;-76
2022/10/04 12:26:08;;;;;;;0.30;0.30;;;19.70;99.90;;;;;;5045925;28;20464;-76
2022/10/04 12:29:11;;;;;;;0.20;0.20;;;19.90;99.90;;;;;;5044020;28;20099;-75
2022/10/04 12:31:58;;;;;;;0.20;0.20;;;20.00;99.90;;;;;;5049213;28;20045;-74
2022/10/04 12:34:42;;;;;;;0.20;0.20;;;19.90;99.90;;;;;;5048237;28;20554;-75
2022/10/04 12:37:46;;;;;;;0.20;0.20;;;19.90;99.90;;;;;;5059018;28;20044;-74
2022/10/04 12:40:11;;;;;;;0.20;0.20;;;20.00;99.90;;;;;;5055458;28;20504;-75
2022/10/04 12:42:49;;;;;;;0.20;0.20;;;20.10;99.90;;;;;;5051647;28;20073;-75
2022/10/04 12:45:30;;;;;;;0.30;0.30;;;20.30;99.90;;;;;;5049357;28;20458;-76
2022/10/04 12:48:41;;;;;;;0.20;0.20;;;20.40;99.90;;;;;;5050266;28;20243;-74
2022/10/04 12:51:41;;;;;;;0.20;0.20;;;20.60;99.90;;;;;;4977200;28;20065;-75
2022/10/04 12:54:41;;;;;;;0.20;0.20;;;20.70;99.90;;;;;;5005420;28;20144;-75
2022/10/04 12:57:28;;;;;;;0.20;0.20;;;20.70;99.90;;;;;;5043737;28;20107;-76
2022/10/04 13:00:14;;;;;;;0.20;0.20;;;20.70;99.90;;;;;;5043802;28;20076;-75
2022/10/04 13:02:56;;;;;;;0.17;0.17;;;20.80;99.90;;;;;;5046472;28;20485;-76
2022/10/04 13:05:54;;;;;;;0.20;0.20;;;20.90;99.90;;;;;;5045351;28;20127;-76
2022/10/04 13:08:31;;;;;;;0.20;0.20;;;21.40;99.90;;;;;;5049782;28;20044;-76
2022/10/04 13:11:19;;;;;;;0.20;0.20;;;21.80;99.90;;;;;;5050455;28;20044;-76
2022/10/04 13:14:03;;;;;;;0.20;0.20;;;22.40;99.90;;;;;;5048952;28;20033;-75
2022/10/04 13:16:55;;;;;;;0.20;0.20;;;23.00;99.90;;;;;;5067512;28;20052;-75
2022/10/04 13:19:39;;;;;;;0.20;0.20;;;23.90;99.90;;;;;;5049040;28;20102;-76
2022/10/04 13:22:14;;;;;;;0.20;0.20;;;24.70;99.90;;;;;;5049870;28;20477;-76
2022/10/04 13:25:01;;;;;;;0.20;0.20;;;25.20;99.90;;;;;;5048032;28;20039;-76
2022/10/04 13:27:46;;;;;;;0.28;0.28;;;25.50;98.50;;;;;;5050849;28;20037;-75
2022/10/04 13:30:25;;;;;;;0.20;0.20;;;25.80;99.30;;;;;;5032043;28;20050;-76
2022/10/04 13:33:28;;;;;;;0.20;0.20;;;26.40;97.50;;;;;;5045227;28;20036;-75
2022/10/04 13:36:15;;;;;;;0.20;0.20;;;26.50;96.70;;;;;;5051076;28;20129;-75
2022/10/04 13:39:15;;;;;;;0.20;0.20;;;26.10;92.90;;;;;;5045155;28;20045;-75
2022/10/04 13:41:59;;;;;;;0.40;0.40;;;25.60;93.80;;;;;;5051434;28;20045;-75
2022/10/04 13:44:43;;;;;;;0.20;0.20;;;24.80;92.70;;;;;;5046893;28;20409;-75
2022/10/04 13:47:21;;;;;;;0.20;0.20;;;24.00;92.60;;;;;;5044713;28;20066;-74
2022/10/04 13:49:47;;;;;;;0.20;0.20;;;23.40;95.00;;;;;;5044076;28;20035;-74
2022/10/04 13:58:36;;;;;;;0.20;0.20;;;22.40;94.70;;;;;;5030289;28;20091;-74
2022/10/04 14:01:20;;;;;;;0.20;0.20;;;21.70;96.10;;;;;;5048549;28;20393;-75
2022/10/04 14:04:23;;;;;;;0.20;0.20;;;21.10;96.50;;;;;;5048113;28;20128;-75
2022/10/04 14:07:15;;;;;;;0.20;0.20;;;20.70;97.70;;;;;;5030638;28;20417;-75
2022/10/04 14:10:21;;;;;;;0.20;0.20;;;20.30;98.80;;;;;;5029834;28;20049;-75
2022/10/04 14:13:30;;;;;;;0.20;0.20;;;20.00;99.50;;;;;;5051584;28;20111;-74